createdAt,value
2022-10-16T00:01:27.218Z,15.14
2022-10-16T00:03:56.962Z,15.14
2022-10-16T00:06:25.306Z,15.14
2022-10-16T00:08:53.407Z,15.14
2022-10-16T00:11:24.339Z,15.17
2022-10-16T00:13:55.397Z,15.22
2022-10-16T00:16:23.414Z,15.25
2022-10-16T00:18:50.945Z,15.25
2022-10-16T00:21:24.258Z,15.26
2022-10-16T00:24:00.074Z,15.28
2022-10-16T00:26:31.176Z,15.27
2022-10-16T00:28:59.404Z,15.28
2022-10-16T00:31:27.873Z,15.29
2022-10-16T00:33:55.488Z,15.27
2022-10-16T00:36:25.169Z,15.29
2022-10-16T00:38:55.584Z,15.27
2022-10-16T00:41:25.787Z,15.25
2022-10-16T00:43:59.338Z,15.24
2022-10-16T00:46:36.637Z,15.23
2022-10-16T00:49:05.449Z,15.22
2022-10-16T00:51:40.851Z,15.20
2022-10-16T00:54:12.737Z,15.20
2022-10-16T00:56:40.742Z,15.20
2022-10-16T00:59:16.302Z,15.21
2022-10-16T01:01:43.841Z,15.22
2022-10-16T01:04:11.355Z,15.23
2022-10-16T01:06:55.118Z,15.22
2022-10-16T01:09:41.602Z,15.23
2022-10-16T01:12:29.343Z,15.20
2022-10-16T01:15:03.952Z,15.17
2022-10-16T01:17:49.100Z,15.14
2022-10-16T01:20:28.367Z,15.11
2022-10-16T01:23:04.772Z,15.08
2022-10-16T01:25:35.510Z,15.05
2022-10-16T01:28:05.794Z,15.02
2022-10-16T01:30:36.569Z,14.99
2022-10-16T01:33:10.990Z,14.98
2022-10-16T01:35:47.317Z,14.95
2022-10-16T01:38:22.685Z,14.94
2022-10-16T01:41:01.345Z,14.94
2022-10-16T01:43:34.609Z,14.97
2022-10-16T01:46:03.128Z,15.00
2022-10-16T01:48:32.543Z,14.99
2022-10-16T01:51:21.456Z,15.00
2022-10-16T01:53:53.084Z,14.97
2022-10-16T01:56:23.702Z,14.97
2022-10-16T01:58:56.517Z,14.95
2022-10-16T02:01:27.616Z,14.92
2022-10-16T02:03:59.739Z,14.89
2022-10-16T02:06:27.309Z,14.86
2022-10-16T02:08:55.045Z,14.85
2022-10-16T02:11:22.615Z,14.82
2022-10-16T02:13:56.492Z,14.80
2022-10-16T02:16:33.082Z,14.77
2022-10-16T02:19:00.838Z,14.78
2022-10-16T02:21:44.566Z,14.78
2022-10-16T02:24:25.894Z,14.81
2022-10-16T02:27:00.737Z,14.81
2022-10-16T02:29:29.131Z,14.78
2022-10-16T02:32:02.963Z,14.76
2022-10-16T02:34:32.963Z,14.70
2022-10-16T02:37:02.676Z,14.62
2022-10-16T02:39:31.092Z,14.57
2022-10-16T02:41:58.654Z,14.55
2022-10-16T02:44:26.275Z,14.52
2022-10-16T02:46:53.794Z,14.48
2022-10-16T02:49:21.487Z,14.44
2022-10-16T02:51:48.978Z,14.44
2022-10-16T02:54:16.560Z,14.46
2022-10-16T02:56:44.063Z,14.47
2022-10-16T02:59:11.563Z,14.50
2022-10-16T03:01:39.158Z,14.49
2022-10-16T03:04:06.838Z,14.46
2022-10-16T03:06:35.508Z,14.44
2022-10-16T03:09:03.460Z,14.43
2022-10-16T03:11:30.969Z,14.40
2022-10-16T03:13:58.550Z,14.36
2022-10-16T03:16:26.096Z,14.36
2022-10-16T03:18:53.638Z,14.31
2022-10-16T03:21:21.136Z,14.33
2022-10-16T03:23:49.020Z,14.36
2022-10-16T03:26:16.586Z,14.33
2022-10-16T03:28:44.290Z,14.33
2022-10-16T03:31:11.944Z,14.31
2022-10-16T03:33:39.559Z,14.28
2022-10-16T03:36:07.658Z,14.26
2022-10-16T03:38:35.376Z,14.25
2022-10-16T03:41:02.902Z,14.20
2022-10-16T03:43:30.425Z,14.16
2022-10-16T03:45:57.936Z,14.12
2022-10-16T03:48:25.815Z,14.12
2022-10-16T03:50:53.348Z,14.13
2022-10-16T03:53:20.867Z,14.12
2022-10-16T03:55:48.443Z,14.13
2022-10-16T03:58:16.219Z,14.13
2022-10-16T04:00:45.418Z,14.10
2022-10-16T04:03:12.975Z,14.06
2022-10-16T04:05:41.088Z,14.01
2022-10-16T04:08:08.778Z,13.93
2022-10-16T04:10:36.282Z,13.88
2022-10-16T04:13:03.970Z,13.84
2022-10-16T04:15:31.467Z,13.79
2022-10-16T04:17:58.990Z,13.73
2022-10-16T04:20:26.644Z,13.67
2022-10-16T04:22:54.205Z,13.59
2022-10-16T04:25:21.763Z,13.50
2022-10-16T04:27:49.605Z,13.39
2022-10-16T04:30:17.707Z,13.29
2022-10-16T04:32:49.800Z,13.24
2022-10-16T04:35:21.602Z,13.19
2022-10-16T04:37:49.423Z,13.19
2022-10-16T04:40:17.269Z,13.15
2022-10-16T04:42:45.232Z,13.06
2022-10-16T04:45:14.891Z,12.96
2022-10-16T04:47:44.873Z,12.88
2022-10-16T04:50:12.350Z,12.79
2022-10-16T04:52:40.097Z,12.73
2022-10-16T04:55:08.303Z,12.72
2022-10-16T04:57:36.011Z,12.72
2022-10-16T05:00:04.601Z,12.70
2022-10-16T05:02:32.283Z,12.67
2022-10-16T05:04:59.816Z,12.62
2022-10-16T05:07:27.706Z,12.55
2022-10-16T05:09:55.587Z,12.51
2022-10-16T05:12:23.114Z,12.46
2022-10-16T05:14:50.688Z,12.43
2022-10-16T05:17:18.253Z,12.42
2022-10-16T05:19:45.815Z,12.41
2022-10-16T05:22:13.337Z,12.39
2022-10-16T05:24:40.941Z,12.36
2022-10-16T05:27:08.467Z,12.32
2022-10-16T05:29:36.200Z,12.28
2022-10-16T05:32:04.230Z,12.22
2022-10-16T05:34:31.827Z,12.18
2022-10-16T05:36:59.333Z,12.15
2022-10-16T05:39:26.864Z,12.16
2022-10-16T05:41:54.433Z,12.20
2022-10-16T05:44:22.158Z,12.24
2022-10-16T05:46:49.979Z,12.26
2022-10-16T05:49:17.636Z,12.26
2022-10-16T05:51:45.344Z,12.28
2022-10-16T05:54:12.872Z,12.31
2022-10-16T05:56:40.421Z,12.39
2022-10-16T05:59:08.140Z,12.48
2022-10-16T06:01:36.376Z,12.55
2022-10-16T06:04:04.122Z,12.58
2022-10-16T06:06:32.004Z,12.60
2022-10-16T06:09:00.696Z,12.59
2022-10-16T06:11:32.171Z,12.60
2022-10-16T06:14:07.780Z,12.58
2022-10-16T06:16:37.446Z,12.59
2022-10-16T06:19:07.363Z,12.65
2022-10-16T06:21:35.193Z,12.72
2022-10-16T06:24:03.337Z,12.80
2022-10-16T06:26:32.292Z,12.92
2022-10-16T06:29:00.533Z,13.00
2022-10-16T06:31:31.803Z,13.05
2022-10-16T06:34:00.093Z,13.10
2022-10-16T06:36:28.606Z,13.17
2022-10-16T06:38:56.197Z,13.26
2022-10-16T06:41:24.488Z,13.40
2022-10-16T06:43:53.271Z,13.55
2022-10-16T06:46:24.454Z,13.68
2022-10-16T06:48:52.008Z,13.82
2022-10-16T06:51:24.674Z,13.94
2022-10-16T06:54:04.116Z,14.08
2022-10-16T06:56:33.879Z,14.19
2022-10-16T06:59:02.327Z,14.24
2022-10-16T07:01:30.572Z,14.29
2022-10-16T07:03:58.441Z,14.34
2022-10-16T07:06:27.495Z,14.40
2022-10-16T07:08:55.131Z,14.47
2022-10-16T07:11:24.287Z,14.50
2022-10-16T07:13:55.956Z,14.52
2022-10-16T07:16:27.220Z,14.53
2022-10-16T07:19:03.030Z,14.55
2022-10-16T07:21:36.470Z,14.57
2022-10-16T07:24:07.339Z,14.91
2022-10-16T07:26:37.285Z,15.34
2022-10-16T07:29:05.136Z,15.79
2022-10-16T07:31:33.513Z,16.19
2022-10-16T07:34:01.468Z,16.56
2022-10-16T07:36:29.249Z,16.99
2022-10-16T07:38:59.018Z,17.31
2022-10-16T07:41:28.059Z,17.54
2022-10-16T07:43:57.392Z,17.70
2022-10-16T07:46:25.051Z,17.89
2022-10-16T07:48:52.952Z,18.20
2022-10-16T07:51:22.940Z,18.42
2022-10-16T07:53:52.052Z,18.64
2022-10-16T07:56:20.192Z,18.88
2022-10-16T07:58:47.792Z,18.95
2022-10-16T08:01:17.087Z,19.25
2022-10-16T08:03:46.437Z,19.59
2022-10-16T08:06:14.281Z,19.77
2022-10-16T08:08:41.943Z,20.01
2022-10-16T08:11:09.633Z,20.23
2022-10-16T08:13:38.169Z,20.61
2022-10-16T08:16:09.350Z,20.85
2022-10-16T08:18:38.591Z,20.89
2022-10-16T08:21:07.832Z,20.84
2022-10-16T08:23:35.577Z,20.60
2022-10-16T08:26:06.859Z,20.42
2022-10-16T08:28:35.093Z,20.37
2022-10-16T08:31:10.190Z,20.33
2022-10-16T08:33:39.053Z,20.23
2022-10-16T08:36:07.119Z,20.46
2022-10-16T08:38:35.400Z,20.88
2022-10-16T08:41:33.181Z,21.26
2022-10-16T08:44:06.737Z,21.18
2022-10-16T08:46:50.705Z,21.12
2022-10-16T08:49:19.063Z,21.05
2022-10-16T08:51:47.564Z,20.98
2022-10-16T08:54:24.219Z,20.84
2022-10-16T08:56:51.816Z,20.61
2022-10-16T08:59:20.165Z,20.56
2022-10-16T09:01:52.218Z,20.46
2022-10-16T09:04:38.160Z,20.34
2022-10-16T09:07:49.059Z,20.48
2022-10-16T09:10:30.778Z,20.33
2022-10-16T09:13:26.027Z,20.17
2022-10-16T09:16:27.865Z,20.01
2022-10-16T09:19:39.329Z,19.80
2022-10-16T09:22:16.558Z,19.59
2022-10-16T09:24:44.124Z,19.47
2022-10-16T09:27:14.591Z,19.52
2022-10-16T09:29:42.598Z,19.62
2022-10-16T09:32:20.417Z,19.73
2022-10-16T09:34:51.301Z,19.94
2022-10-16T09:37:20.951Z,20.37
2022-10-16T09:39:51.600Z,20.82
2022-10-16T09:42:23.392Z,21.11
2022-10-16T09:44:52.928Z,21.28
2022-10-16T09:47:29.147Z,21.27
2022-10-16T09:49:58.213Z,21.25
2022-10-16T09:52:26.320Z,21.07
2022-10-16T09:55:17.369Z,20.97
2022-10-16T09:57:55.266Z,20.84
2022-10-16T10:00:25.214Z,20.90
2022-10-16T10:05:29.808Z,21.56
2022-10-16T10:08:00.946Z,21.90
2022-10-16T10:10:32.832Z,22.21
2022-10-16T10:13:00.533Z,22.32
2022-10-16T10:15:34.379Z,22.17
2022-10-16T10:18:04.206Z,22.11
2022-10-16T10:20:39.104Z,21.94
2022-10-16T10:23:24.569Z,21.96
2022-10-16T10:25:58.345Z,21.91
2022-10-16T10:28:47.018Z,22.15
2022-10-16T10:31:25.143Z,22.37
2022-10-16T10:34:00.881Z,22.60
2022-10-16T10:36:35.224Z,22.77
2022-10-16T10:39:14.465Z,22.64
2022-10-16T10:42:00.851Z,22.23
2022-10-16T10:44:55.989Z,21.96
2022-10-16T10:47:33.068Z,21.68
2022-10-16T10:50:17.972Z,21.46
2022-10-16T10:53:00.751Z,21.29
2022-10-16T10:55:30.940Z,21.31
2022-10-16T10:58:26.671Z,21.38
2022-10-16T11:01:06.421Z,21.57
2022-10-16T11:04:08.039Z,21.84
2022-10-16T11:06:58.698Z,21.91
2022-10-16T11:09:31.774Z,21.81
2022-10-16T11:12:07.638Z,21.85
2022-10-16T11:14:42.249Z,21.73
2022-10-16T11:17:16.404Z,21.70
2022-10-16T11:19:57.985Z,21.80
2022-10-16T11:22:48.533Z,21.91
2022-10-16T11:25:43.923Z,21.85
2022-10-16T11:28:17.244Z,21.83
2022-10-16T11:30:51.678Z,21.78
2022-10-16T11:33:19.194Z,21.62
2022-10-16T11:36:09.554Z,21.42
2022-10-16T11:39:04.972Z,21.22
2022-10-16T11:41:43.150Z,21.36
2022-10-16T11:44:20.333Z,21.68
2022-10-16T11:47:28.608Z,21.81
2022-10-16T11:49:58.745Z,21.69
2022-10-16T11:52:29.589Z,21.63
2022-10-16T11:55:09.372Z,21.60
2022-10-16T11:57:44.758Z,21.51
2022-10-16T12:00:25.157Z,21.44
2022-10-16T12:03:30.798Z,21.41
2022-10-16T12:06:13.590Z,21.56
2022-10-16T12:08:41.795Z,21.70
2022-10-16T12:11:21.161Z,21.70
2022-10-16T12:13:49.339Z,21.65
2022-10-16T12:16:16.845Z,21.50
2022-10-16T12:18:46.262Z,21.33
2022-10-16T12:21:16.984Z,21.27
2022-10-16T12:23:50.829Z,21.28
2022-10-16T12:26:26.789Z,21.26
2022-10-16T12:28:56.033Z,21.17
2022-10-16T12:31:25.164Z,21.06
2022-10-16T12:34:02.164Z,21.09
2022-10-16T12:36:34.538Z,21.14
2022-10-16T12:39:03.203Z,21.14
2022-10-16T12:41:36.186Z,21.11
2022-10-16T12:44:04.174Z,21.21
2022-10-16T12:46:31.687Z,21.34
2022-10-16T12:49:14.389Z,21.30
2022-10-16T12:51:43.449Z,21.22
2022-10-16T12:54:16.711Z,21.20
2022-10-16T12:57:21.247Z,21.10
2022-10-16T13:00:09.831Z,21.06
2022-10-16T13:03:16.948Z,20.86
2022-10-16T13:05:59.947Z,20.72
2022-10-16T13:09:00.285Z,20.69
2022-10-16T13:11:54.203Z,20.70
2022-10-16T13:14:40.753Z,20.71
2022-10-16T13:17:20.917Z,20.71
2022-10-16T13:19:59.995Z,20.64
2022-10-16T13:22:46.166Z,20.57
2022-10-16T13:25:25.788Z,20.57
2022-10-16T13:28:03.754Z,20.54
2022-10-16T13:30:35.587Z,20.48
2022-10-16T13:33:07.897Z,20.44
2022-10-16T13:35:37.279Z,20.42
2022-10-16T13:38:17.445Z,20.39
2022-10-16T13:40:54.009Z,20.37
2022-10-16T13:43:47.044Z,20.34
2022-10-16T13:46:23.108Z,20.31
2022-10-16T13:49:06.177Z,20.28
2022-10-16T13:51:34.274Z,20.25
2022-10-16T13:54:02.057Z,20.22
2022-10-16T13:56:33.101Z,20.17
2022-10-16T13:59:05.757Z,20.15
2022-10-16T14:01:42.583Z,20.12
2022-10-16T14:04:14.673Z,20.08
2022-10-16T14:06:45.483Z,20.04
2022-10-16T14:09:27.490Z,20.03
2022-10-16T14:12:00.956Z,20.01
2022-10-16T14:14:36.723Z,19.96
2022-10-16T14:17:05.449Z,19.91
2022-10-16T14:19:33.314Z,19.86
2022-10-16T14:22:02.984Z,19.84
2022-10-16T14:24:30.454Z,19.81
2022-10-16T14:26:58.994Z,19.81
2022-10-16T14:29:28.756Z,19.78
2022-10-16T14:32:01.906Z,19.78
2022-10-16T14:34:35.235Z,19.74
2022-10-16T14:37:14.301Z,19.72
2022-10-16T14:39:41.938Z,19.70
2022-10-16T14:42:18.670Z,19.66
2022-10-16T14:44:47.240Z,19.63
2022-10-16T14:47:23.029Z,19.61
2022-10-16T14:49:50.700Z,19.58
2022-10-16T14:52:18.335Z,19.56
2022-10-16T14:54:49.861Z,19.53
2022-10-16T14:57:24.553Z,19.48
2022-10-16T14:59:52.666Z,19.46
2022-10-16T15:02:32.542Z,19.45
2022-10-16T15:05:12.731Z,19.43
2022-10-16T15:07:40.313Z,19.41
2022-10-16T15:10:08.196Z,19.36
2022-10-16T15:12:35.771Z,19.30
2022-10-16T15:15:15.765Z,19.26
2022-10-16T15:17:43.262Z,19.21
2022-10-16T15:20:11.271Z,19.19
2022-10-16T15:22:38.780Z,19.17
2022-10-16T15:25:34.188Z,19.13
2022-10-16T15:28:04.310Z,19.08
2022-10-16T15:30:32.338Z,19.03
2022-10-16T15:32:59.850Z,18.98
2022-10-16T15:35:28.021Z,18.93
2022-10-16T15:37:56.006Z,18.88
2022-10-16T15:40:24.197Z,18.85
2022-10-16T15:42:51.717Z,18.84
2022-10-16T15:45:20.186Z,18.81
2022-10-16T15:47:47.883Z,18.76
2022-10-16T15:50:16.602Z,18.72
2022-10-16T15:52:45.727Z,18.70
2022-10-16T15:55:15.022Z,18.67
2022-10-16T15:57:43.787Z,18.62
2022-10-16T16:00:17.266Z,18.57
2022-10-16T16:02:51.306Z,18.54
2022-10-16T16:05:19.154Z,18.51
2022-10-16T16:07:47.111Z,18.48
2022-10-16T16:10:17.956Z,18.45
2022-10-16T16:12:53.843Z,18.44
2022-10-16T16:15:22.764Z,18.43
2022-10-16T16:17:50.808Z,18.40
2022-10-16T16:20:18.573Z,18.38
2022-10-16T16:22:46.195Z,18.32
2022-10-16T16:25:13.895Z,18.29
2022-10-16T16:27:42.976Z,18.23
2022-10-16T16:30:16.669Z,18.16
2022-10-16T16:32:47.307Z,18.10
2022-10-16T16:35:15.086Z,18.05
2022-10-16T16:37:42.772Z,18.01
2022-10-16T16:40:10.422Z,17.96
2022-10-16T16:42:37.993Z,17.90
2022-10-16T16:45:06.869Z,17.84
2022-10-16T16:47:34.449Z,17.78
2022-10-16T16:50:05.735Z,17.73
2022-10-16T16:52:34.278Z,17.69
2022-10-16T16:55:02.824Z,17.63
2022-10-16T16:57:30.611Z,17.55
2022-10-16T16:59:58.477Z,17.51
2022-10-16T17:02:26.132Z,17.49
2022-10-16T17:04:54.237Z,17.42
2022-10-16T17:07:24.134Z,17.35
2022-10-16T17:09:51.941Z,17.27
2022-10-16T17:12:19.466Z,17.19
2022-10-16T17:14:47.076Z,17.13
2022-10-16T17:17:14.570Z,17.06
2022-10-16T17:19:42.128Z,17.03
2022-10-16T17:22:09.817Z,17.03
2022-10-16T17:24:37.393Z,17.02
2022-10-16T17:27:04.924Z,16.97
2022-10-16T17:29:32.520Z,16.95
2022-10-16T17:32:00.166Z,16.90
2022-10-16T17:34:27.802Z,16.84
2022-10-16T17:36:55.428Z,16.78
2022-10-16T17:39:23.383Z,16.75
2022-10-16T17:41:50.969Z,16.68
2022-10-16T17:44:21.084Z,16.68
2022-10-16T17:46:53.582Z,16.66
2022-10-16T17:49:21.474Z,16.65
2022-10-16T17:51:53.762Z,16.63
2022-10-16T17:54:21.504Z,16.61
2022-10-16T17:56:49.581Z,16.55
2022-10-16T17:59:17.353Z,16.54
2022-10-16T18:01:46.254Z,16.55
2022-10-16T18:04:15.043Z,16.60
2022-10-16T18:06:44.256Z,16.63
2022-10-16T18:09:12.578Z,16.68
2022-10-16T18:11:40.712Z,16.67
2022-10-16T18:14:08.345Z,16.67
2022-10-16T18:16:36.958Z,16.70
2022-10-16T18:19:04.956Z,16.71
2022-10-16T18:21:32.742Z,16.74
2022-10-16T18:24:01.250Z,16.77
2022-10-16T18:26:28.850Z,16.82
2022-10-16T18:28:58.190Z,16.85
2022-10-16T18:31:26.625Z,16.88
2022-10-16T18:33:55.785Z,16.89
2022-10-16T18:36:32.699Z,16.92
2022-10-16T18:39:04.397Z,16.92
2022-10-16T18:41:32.691Z,16.92
2022-10-16T18:44:00.246Z,16.95
2022-10-16T18:46:28.688Z,16.98
2022-10-16T18:48:57.337Z,17.00
2022-10-16T18:51:28.140Z,17.01
2022-10-16T18:54:01.830Z,17.01
2022-10-16T18:56:31.429Z,17.02
2022-10-16T18:59:03.157Z,17.01
2022-10-16T19:01:33.972Z,16.98
2022-10-16T19:04:05.415Z,16.93
2022-10-16T19:06:36.133Z,16.91
2022-10-16T19:09:04.978Z,16.93
2022-10-16T19:11:35.786Z,16.94
2022-10-16T19:14:08.621Z,16.98
2022-10-16T19:16:37.328Z,17.00
2022-10-16T19:19:07.416Z,16.98
2022-10-16T19:21:37.386Z,16.95
2022-10-16T19:24:05.346Z,16.94
2022-10-16T19:26:36.774Z,16.86
2022-10-16T19:29:08.107Z,16.81
2022-10-16T19:31:35.712Z,16.83
2022-10-16T19:34:06.703Z,16.83
2022-10-16T19:36:36.459Z,16.83
2022-10-16T19:39:13.202Z,16.83
2022-10-16T19:41:41.238Z,16.81
2022-10-16T19:44:11.670Z,16.79
2022-10-16T19:46:39.464Z,16.75
2022-10-16T19:49:09.823Z,16.72
2022-10-16T19:51:38.147Z,16.65
2022-10-16T19:54:08.478Z,16.64
2022-10-16T19:56:36.548Z,16.62
2022-10-16T19:59:06.872Z,16.63
2022-10-16T20:01:35.466Z,16.61
2022-10-16T20:04:03.353Z,16.61
2022-10-16T20:06:31.250Z,16.58
2022-10-16T20:08:59.788Z,16.56
2022-10-16T20:11:33.751Z,16.52
2022-10-16T20:14:02.481Z,16.50
2022-10-16T20:16:31.147Z,16.51
2022-10-16T20:18:59.169Z,16.52
2022-10-16T20:21:32.425Z,16.50
2022-10-16T20:24:01.036Z,16.48
2022-10-16T20:26:28.775Z,16.45
2022-10-16T20:28:56.627Z,16.39
2022-10-16T20:31:27.231Z,16.33
2022-10-16T20:33:56.806Z,16.32
2022-10-16T20:36:26.430Z,16.31
2022-10-16T20:38:54.376Z,16.28
2022-10-16T20:41:24.013Z,16.27
2022-10-16T20:43:52.552Z,16.26
2022-10-16T20:46:25.760Z,16.25
2022-10-16T20:48:54.807Z,16.23
2022-10-16T20:51:28.390Z,16.20
2022-10-16T20:53:58.911Z,16.18
2022-10-16T20:56:29.013Z,16.16
2022-10-16T20:58:57.343Z,16.16
2022-10-16T21:01:27.241Z,16.18
2022-10-16T21:04:01.688Z,16.18
2022-10-16T21:06:31.181Z,16.15
2022-10-16T21:09:02.987Z,16.14
2022-10-16T21:11:33.913Z,16.10
2022-10-16T21:14:03.120Z,16.03
2022-10-16T21:16:30.877Z,16.03
2022-10-16T21:18:58.493Z,16.00
2022-10-16T21:21:28.411Z,15.99
2022-10-16T21:23:58.037Z,15.99
2022-10-16T21:26:26.987Z,15.98
2022-10-16T21:29:06.675Z,15.96
2022-10-16T21:31:35.715Z,15.93
2022-10-16T21:34:04.060Z,15.90
2022-10-16T21:36:35.337Z,15.89
2022-10-16T21:39:06.341Z,15.88
2022-10-16T21:41:34.646Z,15.89
2022-10-16T21:44:02.822Z,15.87
2022-10-16T21:46:32.727Z,15.86
2022-10-16T21:49:02.613Z,15.82
2022-10-16T21:51:41.915Z,15.77
2022-10-16T21:54:14.136Z,15.70
2022-10-16T21:56:41.701Z,15.69
2022-10-16T21:59:12.504Z,15.67
2022-10-16T22:01:41.046Z,15.69
2022-10-16T22:04:14.034Z,15.69
2022-10-16T22:06:42.714Z,15.65
2022-10-16T22:09:14.778Z,15.64
2022-10-16T22:11:44.701Z,15.61
2022-10-16T22:14:17.775Z,15.57
2022-10-16T22:16:46.343Z,15.57
2022-10-16T22:19:16.206Z,15.58
2022-10-16T22:21:46.416Z,15.57
2022-10-16T22:24:16.088Z,15.53
2022-10-16T22:26:44.999Z,15.50
2022-10-16T22:29:14.380Z,15.45
2022-10-16T22:31:42.938Z,15.42
2022-10-16T22:34:13.179Z,15.40
2022-10-16T22:36:40.780Z,15.37
2022-10-16T22:39:08.426Z,15.38
2022-10-16T22:41:37.159Z,15.35
2022-10-16T22:44:04.986Z,15.27
2022-10-16T22:46:32.585Z,15.21
2022-10-16T22:49:00.176Z,15.15
2022-10-16T22:51:28.160Z,15.10
2022-10-16T22:53:57.444Z,15.09
2022-10-16T22:56:26.074Z,15.10
2022-10-16T22:58:53.848Z,15.08
2022-10-16T23:01:26.909Z,15.04
2022-10-16T23:03:54.747Z,15.01
2022-10-16T23:06:22.636Z,14.97
2022-10-16T23:08:52.552Z,14.93
2022-10-16T23:11:20.578Z,14.93
2022-10-16T23:13:48.389Z,14.91
2022-10-16T23:16:19.073Z,14.90
2022-10-16T23:18:48.093Z,14.90
2022-10-16T23:21:22.248Z,14.87
2022-10-16T23:23:51.428Z,14.86
2022-10-16T23:26:24.746Z,14.86
2022-10-16T23:28:52.813Z,14.88
2022-10-16T23:31:20.516Z,14.91
2022-10-16T23:33:48.360Z,14.91
2022-10-16T23:36:18.342Z,14.93
2022-10-16T23:38:46.670Z,14.90
2022-10-16T23:41:14.868Z,14.83
2022-10-16T23:43:42.574Z,14.81
2022-10-16T23:46:11.673Z,14.84
2022-10-16T23:48:39.929Z,14.87
2022-10-16T23:51:08.796Z,14.88
2022-10-16T23:53:36.673Z,14.85
2022-10-16T23:56:04.547Z,14.82
2022-10-16T23:58:32.129Z,14.79
